createdAt,value
2022-10-03T00:00:15.809Z,2.55
2022-10-03T00:03:29.628Z,3.08
2022-10-03T00:06:25.095Z,2.88
2022-10-03T00:09:04.100Z,2.92
2022-10-03T00:11:37.125Z,2.55
2022-10-03T00:14:26.612Z,2.95
2022-10-03T00:17:02.280Z,2.50
2022-10-03T00:19:49.736Z,2.58
2022-10-03T00:22:19.913Z,2.42
2022-10-03T00:24:55.673Z,2.55
2022-10-03T00:28:00.505Z,2.28
2022-10-03T00:30:41.461Z,1.80
2022-10-03T00:33:20.209Z,1.83
2022-10-03T00:36:00.594Z,2.83
2022-10-03T00:38:39.383Z,2.50
2022-10-03T00:41:53.984Z,1.70
2022-10-03T00:44:38.118Z,2.05
2022-10-03T00:47:22.033Z,2.05
2022-10-03T00:50:26.926Z,2.13
2022-10-03T00:53:10.829Z,1.95
2022-10-03T00:55:55.328Z,2.65
2022-10-03T00:58:49.722Z,1.75
2022-10-03T01:01:22.728Z,2.03
2022-10-03T01:04:13.469Z,2.28
2022-10-03T01:07:11.218Z,2.05
2022-10-03T01:10:03.333Z,1.92
2022-10-03T01:12:48.292Z,1.92
2022-10-03T01:15:27.294Z,2.45
2022-10-03T01:18:08.657Z,1.75
2022-10-03T01:21:04.839Z,2.30
2022-10-03T01:23:57.721Z,1.70
2022-10-03T01:26:41.953Z,1.77
2022-10-03T01:29:52.484Z,2.15
2022-10-03T01:32:53.109Z,1.95
2022-10-03T01:35:34.146Z,1.88
2022-10-03T01:38:09.208Z,2.72
2022-10-03T01:40:53.578Z,2.25
2022-10-03T01:43:32.270Z,1.98
2022-10-03T01:46:05.953Z,1.55
2022-10-03T01:48:50.462Z,1.90
2022-10-03T01:51:27.641Z,1.92
2022-10-03T01:54:15.100Z,1.85
2022-10-03T01:56:46.265Z,2.20
2022-10-03T01:59:18.974Z,1.77
2022-10-03T02:02:08.435Z,1.75
2022-10-03T02:04:41.371Z,1.83
2022-10-03T02:07:27.800Z,1.65
2022-10-03T02:10:07.455Z,2.28
2022-10-03T02:13:00.706Z,1.60
2022-10-03T02:16:05.685Z,2.22
2022-10-03T02:18:35.265Z,1.85
2022-10-03T02:21:09.743Z,1.98
2022-10-03T02:23:36.462Z,1.50
2022-10-03T02:26:09.537Z,1.75
2022-10-03T02:29:11.102Z,2.05
2022-10-03T02:32:04.068Z,1.40
2022-10-03T02:34:36.522Z,1.48
2022-10-03T02:37:18.559Z,1.40
2022-10-03T02:40:10.607Z,1.52
2022-10-03T02:43:02.966Z,1.65
2022-10-03T02:45:38.789Z,1.67
2022-10-03T02:48:31.622Z,1.75
2022-10-03T02:51:37.026Z,2.20
2022-10-03T02:54:36.483Z,1.50
2022-10-03T02:57:30.375Z,1.95
2022-10-03T03:00:14.661Z,1.50
2022-10-03T03:03:01.375Z,1.90
2022-10-03T03:05:58.087Z,2.05
2022-10-03T03:08:58.148Z,1.55
2022-10-03T03:11:49.358Z,2.58
2022-10-03T03:14:31.628Z,2.45
2022-10-03T03:17:16.484Z,1.63
2022-10-03T03:20:04.711Z,2.38
2022-10-03T03:22:56.787Z,2.28
2022-10-03T03:25:29.364Z,2.22
2022-10-03T03:28:02.354Z,1.92
2022-10-03T03:30:59.439Z,2.00
2022-10-03T03:33:35.378Z,2.13
2022-10-03T03:36:12.025Z,1.77
2022-10-03T03:38:41.618Z,2.08
2022-10-03T03:41:14.282Z,2.10
2022-10-03T03:44:00.122Z,1.45
2022-10-03T03:47:15.172Z,1.90
2022-10-03T03:50:06.605Z,2.45
2022-10-03T03:53:32.163Z,2.83
2022-10-03T03:56:26.977Z,1.67
2022-10-03T03:59:14.560Z,1.95
2022-10-03T04:02:06.504Z,2.33
2022-10-03T04:04:52.601Z,1.70
2022-10-03T04:07:25.192Z,1.83
2022-10-03T04:10:25.468Z,1.95
2022-10-03T04:13:10.651Z,2.58
2022-10-03T04:15:46.201Z,1.80
2022-10-03T04:18:43.625Z,1.63
2022-10-03T04:21:34.842Z,2.22
2022-10-03T04:24:21.855Z,2.10
2022-10-03T04:27:12.816Z,1.73
2022-10-03T04:29:47.212Z,1.88
2022-10-03T04:32:37.644Z,2.30
2022-10-03T04:35:10.535Z,2.55
2022-10-03T04:37:57.877Z,2.72
2022-10-03T04:40:41.662Z,2.35
2022-10-03T04:43:38.842Z,2.80
2022-10-03T04:46:15.532Z,3.00
2022-10-03T04:48:54.512Z,2.90
2022-10-03T04:51:54.721Z,2.78
2022-10-03T04:54:31.094Z,3.05
2022-10-03T04:57:00.893Z,3.00
2022-10-03T04:59:58.109Z,3.35
2022-10-03T05:02:31.431Z,2.53
2022-10-03T05:05:32.248Z,2.85
2022-10-03T05:08:30.406Z,2.70
2022-10-03T05:11:22.566Z,3.15
2022-10-03T05:13:53.517Z,2.17
2022-10-03T05:16:57.043Z,3.13
2022-10-03T05:19:49.234Z,3.22
2022-10-03T05:22:55.682Z,2.40
2022-10-03T05:25:25.990Z,2.40
2022-10-03T05:28:04.079Z,3.25
2022-10-03T05:31:00.179Z,2.78
2022-10-03T05:33:31.972Z,2.40
2022-10-03T05:36:23.619Z,2.45
2022-10-03T05:39:24.705Z,4.47
2022-10-03T05:42:22.589Z,3.55
2022-10-03T05:45:11.046Z,3.67
2022-10-03T05:47:56.568Z,5.97
2022-10-03T05:50:42.058Z,5.38
2022-10-03T05:53:33.692Z,5.00
2022-10-03T05:56:45.014Z,5.05
2022-10-03T05:59:26.715Z,5.85
2022-10-03T06:02:04.205Z,4.68
2022-10-03T06:04:55.980Z,5.13
2022-10-03T06:07:45.538Z,4.93
2022-10-03T06:10:40.717Z,4.65
2022-10-03T06:13:11.687Z,4.10
2022-10-03T06:15:54.410Z,3.90
2022-10-03T06:18:43.078Z,3.60
2022-10-03T06:21:54.225Z,3.58
2022-10-03T06:24:55.019Z,3.40
2022-10-03T06:27:42.811Z,2.97
2022-10-03T06:30:21.818Z,4.75
2022-10-03T06:33:30.536Z,4.15
2022-10-03T06:36:18.626Z,3.90
2022-10-03T06:39:10.271Z,3.55
2022-10-03T06:42:05.925Z,3.38
2022-10-03T06:45:00.814Z,2.78
2022-10-03T06:48:05.077Z,3.83
2022-10-03T06:50:55.584Z,2.95
2022-10-03T06:53:22.167Z,2.92
2022-10-03T06:56:19.243Z,3.38
2022-10-03T06:59:01.700Z,3.40
2022-10-03T07:02:18.879Z,2.88
2022-10-03T07:05:39.867Z,3.53
2022-10-03T07:08:51.900Z,2.55
2022-10-03T07:11:31.053Z,2.88
2022-10-03T07:14:17.513Z,2.70
2022-10-03T07:17:04.974Z,2.30
2022-10-03T07:19:39.836Z,2.05
2022-10-03T07:22:38.459Z,2.45
2022-10-03T07:25:27.091Z,2.20
2022-10-03T07:28:32.790Z,1.90
2022-10-03T07:31:36.110Z,1.55
2022-10-03T07:34:58.012Z,1.80
2022-10-03T07:38:00.505Z,1.88
2022-10-03T07:40:42.152Z,1.50
2022-10-03T07:43:21.285Z,1.35
2022-10-03T07:46:12.233Z,1.52
2022-10-03T07:49:22.945Z,1.77
2022-10-03T07:52:20.375Z,1.48
2022-10-03T07:55:05.541Z,1.75
2022-10-03T07:58:10.662Z,2.10
2022-10-03T08:00:50.468Z,1.70
2022-10-03T08:03:41.510Z,2.10
2022-10-03T08:06:34.343Z,1.77
2022-10-03T08:09:29.359Z,1.35
2022-10-03T08:12:30.391Z,1.10
2022-10-03T08:15:11.186Z,1.60
2022-10-03T08:18:22.505Z,1.75
2022-10-03T08:20:57.862Z,1.40
2022-10-03T08:23:55.127Z,1.80
2022-10-03T08:26:49.475Z,1.90
2022-10-03T08:29:37.493Z,2.03
2022-10-03T08:32:57.024Z,1.92
2022-10-03T08:35:48.863Z,1.70
2022-10-03T08:38:43.954Z,1.45
2022-10-03T08:41:47.187Z,1.10
2022-10-03T08:44:34.181Z,1.33
2022-10-03T08:47:21.015Z,1.30
2022-10-03T08:50:25.492Z,1.15
2022-10-03T08:53:04.326Z,1.05
2022-10-03T08:55:47.467Z,1.42
2022-10-03T08:58:52.052Z,1.20
2022-10-03T09:01:37.208Z,1.10
2022-10-03T09:04:41.939Z,1.50
2022-10-03T09:07:34.376Z,1.35
2022-10-03T09:10:26.239Z,1.20
2022-10-03T09:13:09.804Z,1.00
2022-10-03T09:16:18.428Z,1.63
2022-10-03T09:18:57.696Z,1.05
2022-10-03T09:21:51.374Z,1.10
2022-10-03T09:24:36.454Z,0.95
2022-10-03T09:27:40.555Z,1.00
2022-10-03T09:30:39.191Z,1.00
2022-10-03T09:33:30.622Z,0.93
2022-10-03T09:36:11.617Z,1.13
2022-10-03T09:38:59.733Z,1.27
2022-10-03T09:41:52.305Z,1.30
2022-10-03T09:44:44.064Z,0.80
2022-10-03T09:47:29.157Z,0.80
2022-10-03T09:50:19.426Z,1.33
2022-10-03T09:53:24.747Z,0.93
2022-10-03T09:56:01.708Z,1.00
2022-10-03T09:59:06.996Z,0.80
2022-10-03T10:01:47.778Z,1.55
2022-10-03T10:04:43.477Z,1.00
2022-10-03T10:07:47.515Z,0.95
2022-10-03T10:10:39.166Z,1.17
2022-10-03T10:14:03.222Z,1.30
2022-10-03T10:16:49.949Z,1.00
2022-10-03T10:19:31.130Z,1.20
2022-10-03T10:22:33.197Z,0.82
2022-10-03T10:25:02.788Z,0.82
2022-10-03T10:28:00.452Z,0.70
2022-10-03T10:30:59.716Z,0.95
2022-10-03T10:33:51.080Z,0.82
2022-10-03T10:36:55.635Z,0.80
2022-10-03T10:39:56.795Z,0.77
2022-10-03T10:42:59.050Z,1.10
2022-10-03T10:45:58.130Z,0.82
2022-10-03T10:49:03.637Z,0.60
2022-10-03T10:52:06.679Z,0.68
2022-10-03T10:54:36.363Z,0.70
2022-10-03T10:57:24.051Z,0.60
2022-10-03T11:00:18.335Z,0.90
2022-10-03T11:03:19.329Z,0.93
2022-10-03T11:06:25.185Z,0.77
2022-10-03T11:09:17.081Z,0.60
2022-10-03T11:11:56.296Z,0.73
2022-10-03T11:14:52.460Z,0.70
2022-10-03T11:17:49.975Z,0.73
2022-10-03T11:20:47.792Z,0.65
2022-10-03T11:23:48.138Z,0.60
2022-10-03T11:26:52.921Z,1.10
2022-10-03T11:29:31.586Z,0.50
2022-10-03T11:32:17.189Z,0.80
2022-10-03T11:35:21.822Z,0.70
2022-10-03T11:37:53.071Z,0.75
2022-10-03T11:40:51.547Z,0.90
2022-10-03T11:43:43.463Z,0.60
2022-10-03T11:46:25.555Z,0.57
2022-10-03T11:49:16.168Z,0.80
2022-10-03T11:52:06.735Z,0.70
2022-10-03T11:54:39.775Z,0.90
2022-10-03T11:57:26.242Z,1.27
2022-10-03T12:00:17.312Z,0.85
2022-10-03T12:02:46.941Z,0.93
2022-10-03T12:05:47.894Z,1.00
2022-10-03T12:08:45.420Z,1.27
2022-10-03T12:11:27.545Z,0.60
2022-10-03T12:14:10.962Z,0.82
2022-10-03T12:17:03.302Z,0.60
2022-10-03T12:19:40.090Z,0.90
2022-10-03T12:22:24.033Z,0.63
2022-10-03T12:24:55.989Z,1.08
2022-10-03T12:27:55.529Z,0.82
2022-10-03T12:30:22.956Z,0.90
2022-10-03T12:33:19.630Z,0.80
2022-10-03T12:36:18.581Z,0.85
2022-10-03T12:39:00.846Z,0.70
2022-10-03T12:41:49.506Z,0.70
2022-10-03T12:44:32.106Z,1.27
2022-10-03T12:47:09.274Z,0.70
2022-10-03T12:49:57.711Z,0.73
2022-10-03T12:52:49.762Z,0.73
2022-10-03T12:55:32.398Z,0.90
2022-10-03T12:58:39.644Z,0.90
2022-10-03T13:01:15.130Z,0.75
2022-10-03T13:03:55.042Z,0.95
2022-10-03T13:07:02.489Z,1.10
2022-10-03T13:09:35.186Z,0.77
2022-10-03T13:12:16.685Z,0.85
2022-10-03T13:15:03.402Z,1.23
2022-10-03T13:17:52.686Z,1.13
2022-10-03T13:20:27.064Z,1.15
2022-10-03T13:23:34.355Z,1.00
2022-10-03T13:26:17.917Z,1.00
2022-10-03T13:28:55.141Z,0.70
2022-10-03T13:31:28.594Z,0.73
2022-10-03T13:34:00.050Z,0.60
2022-10-03T13:36:46.335Z,1.00
2022-10-03T13:39:19.516Z,0.90
2022-10-03T13:42:20.526Z,1.52
2022-10-03T13:44:57.355Z,1.15
2022-10-03T13:47:28.073Z,1.20
2022-10-03T13:49:58.545Z,0.90
2022-10-03T13:52:39.292Z,0.95
2022-10-03T13:55:31.780Z,0.70
2022-10-03T13:58:26.270Z,0.60
2022-10-03T14:01:11.415Z,1.05
2022-10-03T14:03:59.820Z,1.00
2022-10-03T14:07:03.122Z,1.23
2022-10-03T14:10:10.398Z,1.13
2022-10-03T14:13:13.554Z,0.80
2022-10-03T14:16:14.024Z,0.98
2022-10-03T14:19:07.120Z,0.88
2022-10-03T14:21:40.130Z,0.80
2022-10-03T14:24:37.360Z,0.90
2022-10-03T14:27:07.306Z,1.02
2022-10-03T14:29:53.550Z,0.80
2022-10-03T14:32:47.229Z,0.50
2022-10-03T14:35:38.596Z,0.88
2022-10-03T14:38:58.720Z,1.35
2022-10-03T14:41:28.930Z,0.70
2022-10-03T14:44:00.040Z,0.80
2022-10-03T14:46:31.634Z,1.00
2022-10-03T14:49:03.473Z,0.73
2022-10-03T14:51:37.110Z,0.73
2022-10-03T14:54:18.369Z,2.72
2022-10-03T14:56:47.376Z,1.20
2022-10-03T14:59:34.571Z,1.13
2022-10-03T15:02:44.665Z,1.25
2022-10-03T15:05:23.192Z,0.90
2022-10-03T15:07:51.999Z,0.80
2022-10-03T15:10:23.502Z,0.60
2022-10-03T15:13:05.260Z,0.68
2022-10-03T15:15:38.025Z,0.98
2022-10-03T15:18:07.556Z,1.00
2022-10-03T15:20:42.151Z,0.65
2022-10-03T15:23:26.046Z,0.88
2022-10-03T15:25:54.232Z,0.57
2022-10-03T15:28:46.213Z,1.15
2022-10-03T15:31:22.306Z,0.82
2022-10-03T15:33:52.940Z,1.00
2022-10-03T15:36:28.026Z,0.90
2022-10-03T15:39:07.949Z,1.20
2022-10-03T15:41:49.173Z,1.20
2022-10-03T15:44:39.043Z,2.58
2022-10-03T15:47:28.415Z,3.22
2022-10-03T15:50:20.930Z,5.75
2022-10-03T15:52:54.461Z,7.05
2022-10-03T15:55:30.381Z,5.55
2022-10-03T15:58:10.339Z,4.45
2022-10-03T16:00:38.254Z,6.05
2022-10-03T16:03:16.192Z,5.88
2022-10-03T16:06:35.907Z,3.28
2022-10-03T16:09:41.542Z,6.47
2022-10-03T16:12:37.845Z,17.80
2022-10-03T16:15:15.008Z,5.88
2022-10-03T16:18:18.303Z,9.18
2022-10-03T16:20:57.148Z,8.18
2022-10-03T16:23:34.963Z,11.05
2022-10-03T16:26:06.803Z,23.10
2022-10-03T16:28:36.894Z,11.63
2022-10-03T16:31:11.141Z,3.50
2022-10-03T16:33:49.013Z,4.20
2022-10-03T16:36:21.610Z,3.00
2022-10-03T16:38:59.804Z,1.35
2022-10-03T16:41:32.496Z,1.92
2022-10-03T16:44:02.501Z,1.73
2022-10-03T16:46:35.450Z,1.70
2022-10-03T16:49:28.487Z,1.40
2022-10-03T16:52:01.047Z,1.70
2022-10-03T16:54:28.851Z,1.83
2022-10-03T16:56:59.659Z,2.35
2022-10-03T16:59:28.759Z,1.88
2022-10-03T17:02:14.249Z,1.73
2022-10-03T17:04:45.419Z,2.03
2022-10-03T17:07:23.661Z,1.30
2022-10-03T17:09:56.204Z,2.13
2022-10-03T17:12:32.493Z,1.70
2022-10-03T17:15:05.528Z,1.38
2022-10-03T17:17:53.585Z,1.70
2022-10-03T17:20:40.431Z,2.67
2022-10-03T17:23:27.534Z,2.50
2022-10-03T17:26:23.120Z,2.83
2022-10-03T17:29:30.744Z,1.85
2022-10-03T17:32:14.435Z,2.00
2022-10-03T17:34:47.793Z,2.45
2022-10-03T17:37:15.089Z,2.65
2022-10-03T17:39:56.236Z,3.15
2022-10-03T17:42:29.582Z,4.03
2022-10-03T17:45:23.338Z,2.88
2022-10-03T17:48:00.490Z,2.55
2022-10-03T17:50:37.240Z,3.75
2022-10-03T17:53:04.839Z,3.13
2022-10-03T17:55:41.600Z,4.00
2022-10-03T17:58:17.386Z,3.78
2022-10-03T18:00:44.209Z,3.83
2022-10-03T18:03:22.480Z,6.78
2022-10-03T18:05:53.504Z,4.55
2022-10-03T18:08:27.186Z,3.13
2022-10-03T18:10:56.159Z,2.47
2022-10-03T18:13:37.945Z,2.35
2022-10-03T18:16:14.803Z,1.85
2022-10-03T18:19:26.027Z,2.60
2022-10-03T18:22:02.349Z,1.58
2022-10-03T18:24:56.695Z,1.40
2022-10-03T18:28:05.210Z,2.35
2022-10-03T18:30:46.082Z,2.78
2022-10-03T18:33:15.493Z,2.75
2022-10-03T18:35:45.902Z,2.03
2022-10-03T18:38:19.389Z,2.60
2022-10-03T18:40:48.748Z,1.98
2022-10-03T18:43:46.152Z,1.83
2022-10-03T18:46:22.861Z,1.67
2022-10-03T18:49:30.024Z,1.65
2022-10-03T18:51:50.682Z,1.20
2022-10-03T18:54:24.749Z,2.08
2022-10-03T18:57:22.844Z,2.00
2022-10-03T19:00:05.553Z,2.63
2022-10-03T19:02:48.132Z,2.47
2022-10-03T19:05:17.564Z,2.83
2022-10-03T19:08:16.389Z,2.13
2022-10-03T19:10:51.934Z,1.90
2022-10-03T19:13:24.912Z,1.45
2022-10-03T19:16:16.832Z,1.52
2022-10-03T19:19:07.853Z,1.70
2022-10-03T19:21:39.301Z,1.65
2022-10-03T19:24:17.738Z,2.05
2022-10-03T19:26:48.475Z,1.58
2022-10-03T19:29:23.506Z,1.45
2022-10-03T19:31:50.465Z,1.45
2022-10-03T19:34:22.483Z,1.80
2022-10-03T19:36:51.712Z,1.23
2022-10-03T19:39:21.301Z,1.77
2022-10-03T19:42:06.062Z,1.50
2022-10-03T19:44:32.745Z,1.45
2022-10-03T19:47:05.464Z,1.70
2022-10-03T19:49:55.727Z,1.95
2022-10-03T19:52:22.478Z,2.33
2022-10-03T19:55:00.032Z,2.47
2022-10-03T19:57:37.745Z,2.38
2022-10-03T20:00:15.398Z,2.28
2022-10-03T20:02:44.496Z,1.60
2022-10-03T20:05:35.823Z,1.90
2022-10-03T20:08:26.285Z,2.50
2022-10-03T20:11:27.466Z,2.42
2022-10-03T20:13:57.410Z,2.33
2022-10-03T20:16:37.253Z,2.20
2022-10-03T20:19:11.352Z,2.10
2022-10-03T20:21:38.658Z,1.75
2022-10-03T20:24:17.094Z,2.22
2022-10-03T20:26:54.099Z,1.63
2022-10-03T20:29:39.860Z,1.83
2022-10-03T20:32:07.283Z,1.92
2022-10-03T20:34:36.564Z,2.17
2022-10-03T20:37:22.639Z,1.45
2022-10-03T20:39:51.504Z,2.50
2022-10-03T20:42:28.719Z,2.83
2022-10-03T20:45:03.426Z,2.13
2022-10-03T20:47:51.293Z,2.00
2022-10-03T20:50:32.155Z,3.15
2022-10-03T20:53:04.804Z,2.10
2022-10-03T20:55:43.979Z,2.25
2022-10-03T20:58:19.682Z,2.53
2022-10-03T21:00:53.684Z,2.72
2022-10-03T21:03:28.563Z,3.17
2022-10-03T21:05:57.626Z,3.00
2022-10-03T21:08:38.025Z,2.63
2022-10-03T21:11:16.613Z,2.50
2022-10-03T21:14:15.625Z,2.28
2022-10-03T21:16:49.175Z,2.17
2022-10-03T21:19:32.472Z,2.17
2022-10-03T21:22:04.899Z,2.20
2022-10-03T21:24:53.073Z,2.17
2022-10-03T21:27:21.553Z,2.00
2022-10-03T21:30:01.697Z,2.75
2022-10-03T21:33:05.133Z,2.50
2022-10-03T21:35:36.256Z,2.70
2022-10-03T21:38:28.275Z,7.75
2022-10-03T21:41:13.539Z,7.80
2022-10-03T21:44:15.507Z,8.30
2022-10-03T21:46:57.462Z,5.65
2022-10-03T21:49:47.895Z,3.78
2022-10-03T21:52:27.147Z,3.03
2022-10-03T21:55:18.305Z,8.57
2022-10-03T21:58:01.007Z,4.75
2022-10-03T22:00:30.118Z,2.90
2022-10-03T22:03:32.654Z,3.17
2022-10-03T22:06:08.427Z,5.63
2022-10-03T22:08:42.881Z,3.50
2022-10-03T22:11:45.925Z,2.90
2022-10-03T22:14:26.075Z,3.00
2022-10-03T22:17:07.946Z,3.30
2022-10-03T22:19:49.715Z,2.70
2022-10-03T22:22:42.459Z,3.28
2022-10-03T22:25:32.430Z,3.92
2022-10-03T22:28:26.578Z,3.63
2022-10-03T22:31:14.391Z,3.90
2022-10-03T22:34:11.792Z,3.70
2022-10-03T22:36:40.279Z,3.80
2022-10-03T22:39:13.421Z,4.53
2022-10-03T22:41:43.756Z,4.10
2022-10-03T22:44:12.531Z,4.45
2022-10-03T22:46:43.576Z,4.18
2022-10-03T22:49:25.503Z,4.32
2022-10-03T22:51:55.290Z,3.60
2022-10-03T22:54:23.683Z,4.57
2022-10-03T22:56:57.603Z,4.43
2022-10-03T22:59:31.178Z,4.05
2022-10-03T23:02:02.079Z,4.55
2022-10-03T23:04:32.953Z,4.93
2022-10-03T23:07:26.084Z,5.15
2022-10-03T23:09:55.654Z,4.50
2022-10-03T23:12:26.765Z,4.90
2022-10-03T23:14:55.197Z,5.35
2022-10-03T23:17:50.520Z,4.70
2022-10-03T23:20:25.993Z,4.80
2022-10-03T23:23:01.030Z,4.90
2022-10-03T23:25:48.692Z,5.70
2022-10-03T23:28:26.451Z,5.43
2022-10-03T23:30:54.263Z,5.25
2022-10-03T23:33:33.222Z,6.47
2022-10-03T23:36:18.698Z,6.47
2022-10-03T23:38:45.256Z,6.90
2022-10-03T23:41:29.223Z,6.30
2022-10-03T23:43:57.377Z,6.88
2022-10-03T23:46:27.572Z,6.32
2022-10-03T23:49:01.989Z,5.60
2022-10-03T23:51:37.215Z,6.15
2022-10-03T23:54:08.015Z,6.53
2022-10-03T23:56:47.311Z,7.38
2022-10-03T23:59:14.052Z,7.40
